createdAt,value
2022-12-08T00:02:03.960Z,3.30
2022-12-08T00:07:29.032Z,3.07
2022-12-08T00:12:34.408Z,1.53
2022-12-08T00:17:39.786Z,3.23
2022-12-08T00:22:45.239Z,3.20
2022-12-08T00:27:50.630Z,2.70
2022-12-08T00:32:56.082Z,1.83
2022-12-08T00:38:01.480Z,1.10
2022-12-08T00:43:07.125Z,1.73
2022-12-08T00:48:13.660Z,4.80
2022-12-08T00:53:19.105Z,1.60
2022-12-08T00:58:24.482Z,3.97
2022-12-08T01:03:29.992Z,1.13
2022-12-08T01:08:37.631Z,2.47
2022-12-08T01:13:44.145Z,1.70
2022-12-08T01:18:49.588Z,3.80
2022-12-08T01:23:55.578Z,2.43
2022-12-08T01:29:01.027Z,2.77
2022-12-08T01:34:07.242Z,3.13
2022-12-08T01:39:17.771Z,1.47
2022-12-08T01:44:26.272Z,1.33
2022-12-08T01:49:37.390Z,1.63
2022-12-08T01:54:45.814Z,4.00
2022-12-08T01:59:54.229Z,1.40
2022-12-08T02:04:59.706Z,1.83
2022-12-08T02:10:06.344Z,2.77
2022-12-08T02:15:12.448Z,2.20
2022-12-08T02:20:26.947Z,1.53
2022-12-08T02:25:40.649Z,3.17
2022-12-08T02:31:08.291Z,1.53
2022-12-08T02:36:17.006Z,1.50
2022-12-08T02:41:34.259Z,1.90
2022-12-08T02:46:48.167Z,2.87
2022-12-08T02:51:53.900Z,2.97
2022-12-08T02:57:11.223Z,1.70
2022-12-08T03:02:19.827Z,1.17
2022-12-08T03:07:43.675Z,1.63
2022-12-08T03:13:07.045Z,1.13
2022-12-08T03:18:14.504Z,1.33
2022-12-08T03:23:22.146Z,1.47
2022-12-08T03:28:27.968Z,0.90
2022-12-08T03:33:36.530Z,2.10
2022-12-08T03:38:43.950Z,1.43
2022-12-08T03:43:51.814Z,3.17
2022-12-08T03:48:57.582Z,2.90
2022-12-08T03:54:02.957Z,2.50
2022-12-08T03:59:08.876Z,1.67
2022-12-08T04:04:14.389Z,1.60
2022-12-08T04:09:19.787Z,1.60
2022-12-08T04:14:25.326Z,5.40
2022-12-08T04:19:31.614Z,2.53
2022-12-08T04:24:37.001Z,3.23
2022-12-08T04:29:42.524Z,2.47
2022-12-08T04:34:47.921Z,2.97
2022-12-08T04:39:53.874Z,3.73
2022-12-08T04:44:59.251Z,3.10
2022-12-08T04:50:06.174Z,4.73
2022-12-08T04:55:12.318Z,4.93
2022-12-08T05:00:18.692Z,3.43
2022-12-08T05:05:24.175Z,5.40
2022-12-08T05:10:29.621Z,3.50
2022-12-08T05:15:35.067Z,4.87
2022-12-08T05:20:40.445Z,4.73
2022-12-08T05:25:45.903Z,5.17
2022-12-08T05:30:51.422Z,5.67
2022-12-08T05:35:56.875Z,4.60
2022-12-08T05:41:02.555Z,6.80
2022-12-08T05:46:09.525Z,3.60
2022-12-08T05:51:24.608Z,3.57
2022-12-08T05:56:30.055Z,4.00
2022-12-08T06:01:36.361Z,4.00
2022-12-08T06:06:41.801Z,4.30
2022-12-08T06:11:47.336Z,5.57
2022-12-08T06:16:52.864Z,4.10
2022-12-08T06:21:58.445Z,6.10
2022-12-08T06:27:03.837Z,7.07
2022-12-08T06:32:09.375Z,6.40
2022-12-08T06:37:14.969Z,6.27
2022-12-08T06:42:38.407Z,4.43
2022-12-08T06:47:44.238Z,3.93
2022-12-08T06:53:02.689Z,4.20
2022-12-08T06:57:57.275Z,3.17
2022-12-08T07:03:02.891Z,2.57
2022-12-08T07:08:09.933Z,2.50
2022-12-08T07:13:15.371Z,2.87
2022-12-08T07:18:20.752Z,3.20
2022-12-08T07:23:26.221Z,2.57
2022-12-08T07:28:33.459Z,3.47
2022-12-08T07:33:38.845Z,2.77
2022-12-08T07:38:45.374Z,6.00
2022-12-08T07:43:50.804Z,5.13
2022-12-08T07:48:57.205Z,7.27
2022-12-08T07:54:02.591Z,6.00
2022-12-08T07:59:07.977Z,5.50
2022-12-08T08:04:13.389Z,5.50
2022-12-08T08:09:18.824Z,5.17
2022-12-08T08:14:24.203Z,6.47
2022-12-08T08:19:29.653Z,5.93
2022-12-08T08:24:36.483Z,5.43
2022-12-08T08:29:42.354Z,8.23
2022-12-08T08:34:47.813Z,5.33
2022-12-08T08:39:53.328Z,8.50
2022-12-08T08:44:58.727Z,5.73
2022-12-08T08:50:04.814Z,7.70
2022-12-08T08:55:10.891Z,6.07
2022-12-08T09:00:17.510Z,6.23
2022-12-08T09:05:22.958Z,10.03
2022-12-08T09:10:29.231Z,9.37
2022-12-08T09:15:34.666Z,8.80
2022-12-08T09:20:40.325Z,9.40
2022-12-08T09:25:46.834Z,8.97
2022-12-08T09:30:53.059Z,10.00
2022-12-08T09:36:00.031Z,11.07
2022-12-08T09:41:08.227Z,7.63
2022-12-08T09:46:16.945Z,8.43
2022-12-08T09:51:25.011Z,10.43
2022-12-08T09:56:36.578Z,10.53
2022-12-08T10:01:42.322Z,12.27
2022-12-08T10:07:24.363Z,11.67
2022-12-08T10:12:49.492Z,12.77
2022-12-08T10:17:57.785Z,12.53
2022-12-08T10:23:15.657Z,9.63
2022-12-08T10:28:21.109Z,12.80
2022-12-08T10:33:26.704Z,12.97
2022-12-08T10:38:40.653Z,12.60
2022-12-08T10:43:49.140Z,11.77
2022-12-08T10:49:05.794Z,10.37
2022-12-08T10:54:32.481Z,11.73
2022-12-08T10:59:39.411Z,10.90
2022-12-08T11:04:46.572Z,10.80
2022-12-08T11:09:58.332Z,10.17
2022-12-08T11:15:05.428Z,9.67
2022-12-08T11:20:13.845Z,9.80
2022-12-08T11:25:27.762Z,10.10
2022-12-08T11:30:36.239Z,8.83
2022-12-08T11:35:44.819Z,10.80
2022-12-08T11:40:53.244Z,9.77
2022-12-08T11:46:21.158Z,8.93
2022-12-08T11:51:53.357Z,11.10
2022-12-08T11:57:01.713Z,9.50
2022-12-08T12:02:09.525Z,9.87
2022-12-08T12:07:39.390Z,11.07
2022-12-08T12:13:00.387Z,9.60
2022-12-08T12:18:16.931Z,11.17
2022-12-08T12:23:42.978Z,9.50
2022-12-08T12:28:54.547Z,9.90
2022-12-08T12:34:11.777Z,9.30
2022-12-08T12:39:20.355Z,11.93
2022-12-08T12:44:31.757Z,12.47
2022-12-08T12:49:44.056Z,12.13
2022-12-08T12:54:55.817Z,11.77
2022-12-08T13:00:04.246Z,11.60
2022-12-08T13:05:29.120Z,12.30
2022-12-08T13:10:37.404Z,8.93
2022-12-08T13:15:54.012Z,11.93
2022-12-08T13:21:08.822Z,10.83
2022-12-08T13:26:23.474Z,10.27
2022-12-08T13:31:51.265Z,11.23
2022-12-08T13:37:16.683Z,10.53
2022-12-08T13:42:40.024Z,9.10
2022-12-08T13:48:21.763Z,13.77
2022-12-08T13:58:33.728Z,14.93
2022-12-08T14:09:11.361Z,14.33
2022-12-08T14:14:46.022Z,13.20
2022-12-08T14:19:32.079Z,11.93
2022-12-08T14:24:37.603Z,14.40
2022-12-08T14:29:55.208Z,11.37
2022-12-08T14:35:12.711Z,11.03
2022-12-08T14:40:23.491Z,13.50
2022-12-08T14:45:28.698Z,13.77
2022-12-08T14:50:42.924Z,11.73
2022-12-08T14:55:50.138Z,12.27
2022-12-08T15:00:58.593Z,14.10
2022-12-08T15:06:09.038Z,9.20
2022-12-08T15:11:26.233Z,7.03
2022-12-08T15:16:34.713Z,10.50
2022-12-08T15:21:40.236Z,6.63
2022-12-08T15:26:48.701Z,8.70
2022-12-08T15:31:56.793Z,7.43
2022-12-08T15:37:02.171Z,7.73
2022-12-08T15:42:10.623Z,7.00
2022-12-08T15:47:24.709Z,6.87
2022-12-08T15:52:30.311Z,6.23
2022-12-08T15:58:17.381Z,8.20
2022-12-08T16:03:13.163Z,6.43
2022-12-08T16:07:53.115Z,7.47
2022-12-08T16:13:55.453Z,7.17
2022-12-08T16:18:25.325Z,7.70
2022-12-08T16:23:46.159Z,7.97
2022-12-08T16:28:53.865Z,9.63
2022-12-08T16:33:45.550Z,7.07
2022-12-08T16:38:50.930Z,8.57
2022-12-08T16:43:56.569Z,7.47
2022-12-08T16:49:02.202Z,9.27
2022-12-08T16:54:07.647Z,9.00
2022-12-08T16:59:13.114Z,9.10
2022-12-08T17:04:34.166Z,11.10
2022-12-08T17:09:28.643Z,10.83
2022-12-08T17:14:35.582Z,11.37
2022-12-08T17:19:41.015Z,11.30
2022-12-08T17:24:46.951Z,11.73
2022-12-08T17:29:52.870Z,11.33
2022-12-08T17:34:58.496Z,11.93
2022-12-08T17:40:04.931Z,10.70
2022-12-08T17:45:11.255Z,9.50
2022-12-08T17:50:16.840Z,11.40
2022-12-08T17:55:22.293Z,9.70
2022-12-08T18:00:27.743Z,11.33
2022-12-08T18:05:34.830Z,11.93
2022-12-08T18:10:40.661Z,10.90
2022-12-08T18:15:46.034Z,12.83
2022-12-08T18:20:51.814Z,10.97
2022-12-08T18:25:57.294Z,15.03
2022-12-08T18:31:03.336Z,15.30
2022-12-08T18:36:14.225Z,17.60
2022-12-08T18:41:24.584Z,20.03
2022-12-08T18:46:32.000Z,18.73
2022-12-08T18:51:38.356Z,21.67
2022-12-08T18:56:43.879Z,20.87
2022-12-08T19:01:49.700Z,19.67
2022-12-08T19:06:55.661Z,18.30
2022-12-08T19:12:01.065Z,19.73
2022-12-08T19:17:07.219Z,15.77
2022-12-08T19:22:13.240Z,17.13
2022-12-08T19:27:19.029Z,14.70
2022-12-08T19:32:24.799Z,18.30
2022-12-08T19:37:31.481Z,15.33
2022-12-08T19:42:55.089Z,14.97
2022-12-08T19:48:00.545Z,14.67
2022-12-08T19:53:08.636Z,12.87
2022-12-08T19:58:14.577Z,15.53
2022-12-08T20:03:23.178Z,14.43
2022-12-08T20:08:28.875Z,14.67
2022-12-08T20:13:44.491Z,16.77
2022-12-08T20:18:49.876Z,22.70
2022-12-08T20:23:55.619Z,18.00
2022-12-08T20:29:01.147Z,15.80
2022-12-08T20:34:06.543Z,17.93
2022-12-08T20:39:17.964Z,20.53
2022-12-08T20:44:23.674Z,19.03
2022-12-08T20:49:34.393Z,16.37
2022-12-08T20:54:37.870Z,18.80
2022-12-08T20:59:43.618Z,15.57
2022-12-08T21:04:49.313Z,12.87
2022-12-08T21:09:55.129Z,12.13
2022-12-08T21:15:00.699Z,12.80
2022-12-08T21:20:07.993Z,18.63
2022-12-08T21:25:13.817Z,17.50
2022-12-08T21:30:19.686Z,18.23
2022-12-08T21:35:25.219Z,22.53
2022-12-08T21:40:30.876Z,12.93
2022-12-08T21:45:36.552Z,14.57
2022-12-08T21:50:42.026Z,22.23
2022-12-08T21:55:47.710Z,23.50
2022-12-08T22:00:53.428Z,28.80
2022-12-08T22:05:59.202Z,30.83
2022-12-08T22:11:06.094Z,27.00
2022-12-08T22:16:15.013Z,29.63
2022-12-08T22:21:20.766Z,23.80
2022-12-08T22:26:26.353Z,21.83
2022-12-08T22:31:32.240Z,24.10
2022-12-08T22:36:38.097Z,22.13
2022-12-08T22:41:43.520Z,28.43
2022-12-08T22:46:49.190Z,29.73
2022-12-08T22:51:55.365Z,25.70
2022-12-08T22:57:00.972Z,25.23
2022-12-08T23:02:07.195Z,25.60
2022-12-08T23:07:13.138Z,29.33
2022-12-08T23:12:18.835Z,21.20
2022-12-08T23:17:24.657Z,21.77
2022-12-08T23:22:30.377Z,19.73
2022-12-08T23:27:37.326Z,22.90
2022-12-08T23:32:43.381Z,22.57
2022-12-08T23:37:49.533Z,23.00
2022-12-08T23:42:55.010Z,21.83
2022-12-08T23:48:00.675Z,25.63
2022-12-08T23:53:06.345Z,31.70
2022-12-08T23:58:11.998Z,25.47
